Time;durP1;ratioP1;P1;durP2;ratioP2;P2;SDS_P1;SDS_P2;PMS_P1;PMS_P2;Temp;Humidity;BMP_temperature;BMP_pressure;BME280_temperature;BME280_humidity;BME280_pressure;Samples;Min_cycle;Max_cycle;Signal;HPM_P1;HPM_P2
2024/04/13 00:01:09;;;;;;;5.55;2.60;;;15.80;99.90;;;;;;5440220;26;20236;-72
2024/04/13 00:03:35;;;;;;;4.18;2.45;;;15.80;99.90;;;;;;5430387;26;20241;-70
2024/04/13 00:06:00;;;;;;;4.53;2.60;;;15.70;99.90;;;;;;5451172;26;20830;-70
2024/04/13 00:08:26;;;;;;;4.45;2.50;;;15.70;99.90;;;;;;5454482;26;20545;-71
2024/04/13 00:10:52;;;;;;;4.97;2.85;;;15.70;99.90;;;;;;5454805;26;20239;-71
2024/04/13 00:13:17;;;;;;;7.13;2.58;;;15.70;99.90;;;;;;5455653;26;20314;-71
2024/04/13 00:15:53;;;;;;;4.78;2.92;;;15.70;99.90;;;;;;5457210;26;20718;-71
2024/04/13 00:18:18;;;;;;;5.50;2.83;;;15.70;99.90;;;;;;5453274;26;20271;-71
2024/04/13 00:20:44;;;;;;;6.95;3.00;;;15.60;99.90;;;;;;5455873;26;20223;-71
2024/04/13 00:23:09;;;;;;;5.20;2.47;;;15.60;99.90;;;;;;5459605;26;20653;-70
2024/04/13 00:25:35;;;;;;;5.35;3.47;;;15.60;99.90;;;;;;5445946;26;20261;-71
2024/04/13 00:28:01;;;;;;;4.25;2.67;;;15.50;99.90;;;;;;5461881;26;20228;-71
2024/04/13 00:30:26;;;;;;;6.22;2.95;;;15.50;99.90;;;;;;5457982;26;20239;-71
2024/04/13 00:32:52;;;;;;;4.15;2.78;;;15.50;99.90;;;;;;5422616;26;20270;-71
2024/04/13 00:35:21;;;;;;;6.72;3.17;;;15.60;99.90;;;;;;5456487;26;20295;-71
2024/04/13 00:37:46;;;;;;;3.83;2.80;;;15.50;99.90;;;;;;5458865;26;20231;-70
2024/04/13 00:40:13;;;;;;;7.93;3.13;;;15.50;99.90;;;;;;5418260;26;20270;-70
2024/04/13 00:42:38;;;;;;;8.40;3.85;;;15.40;99.90;;;;;;5446180;26;20717;-70
2024/04/13 00:45:05;;;;;;;4.00;3.40;;;15.30;99.90;;;;;;5431666;26;20274;-71
2024/04/13 00:47:34;;;;;;;6.60;3.92;;;15.30;99.90;;;;;;5455322;26;20240;-71
2024/04/13 00:50:11;;;;;;;7.63;4.00;;;15.30;99.90;;;;;;5452241;26;20244;-71
2024/04/13 00:52:39;;;;;;;6.63;3.55;;;15.30;99.90;;;;;;5453742;26;20309;-72
2024/04/13 00:55:06;;;;;;;6.80;4.47;;;15.30;99.90;;;;;;5452441;26;20352;-70
2024/04/13 00:57:36;;;;;;;7.22;3.88;;;15.30;99.90;;;;;;5453632;26;20236;-71
2024/04/13 01:00:05;;;;;;;5.55;3.50;;;15.30;99.90;;;;;;5452872;26;20806;-71
2024/04/13 01:02:31;;;;;;;6.68;3.65;;;15.30;99.90;;;;;;5453279;26;20726;-71
2024/04/13 01:04:57;;;;;;;7.07;3.92;;;15.30;99.90;;;;;;5453388;26;20261;-71
2024/04/13 01:07:26;;;;;;;6.90;3.40;;;15.30;99.90;;;;;;5454503;26;20231;-72
2024/04/13 01:09:54;;;;;;;6.65;3.88;;;15.20;99.90;;;;;;5453269;26;20255;-71
2024/04/13 01:12:21;;;;;;;6.03;3.63;;;15.10;99.90;;;;;;5450810;26;20737;-71
2024/04/13 01:14:47;;;;;;;7.10;3.03;;;15.00;99.90;;;;;;5452378;26;20328;-71
2024/04/13 01:17:12;;;;;;;5.60;3.22;;;15.00;99.90;;;;;;5450988;26;20251;-70
2024/04/13 01:19:38;;;;;;;5.75;3.45;;;15.00;99.90;;;;;;5424426;26;20248;-71
2024/04/13 01:22:05;;;;;;;6.22;3.80;;;15.00;99.90;;;;;;5449855;26;20347;-71
2024/04/13 01:24:32;;;;;;;4.93;3.53;;;15.00;99.90;;;;;;5452640;26;20679;-72
2024/04/13 01:26:58;;;;;;;5.03;3.33;;;15.00;99.90;;;;;;5451335;26;20235;-71
2024/04/13 01:29:23;;;;;;;3.95;3.22;;;15.00;99.90;;;;;;5454333;26;20842;-70
2024/04/13 01:31:49;;;;;;;5.07;3.28;;;14.90;99.90;;;;;;5454492;26;20706;-71
2024/04/13 01:34:15;;;;;;;5.78;3.30;;;14.90;99.90;;;;;;5452438;26;20356;-71
2024/04/13 01:36:41;;;;;;;5.97;3.25;;;14.80;99.90;;;;;;5453311;26;20235;-71
2024/04/13 01:39:12;;;;;;;6.50;3.75;;;14.80;99.90;;;;;;5452955;26;20236;-70
2024/04/13 01:41:46;;;;;;;3.65;2.92;;;14.80;99.90;;;;;;5452919;26;20659;-71
2024/04/13 01:44:12;;;;;;;3.40;2.85;;;14.80;99.90;;;;;;5426710;26;20292;-71
2024/04/13 01:46:38;;;;;;;5.90;3.30;;;14.80;99.90;;;;;;5452618;26;20278;-70
2024/04/13 01:49:04;;;;;;;6.80;3.10;;;14.60;99.90;;;;;;5420903;26;20242;-71
2024/04/13 01:51:31;;;;;;;6.65;3.00;;;14.60;99.90;;;;;;5452474;26;20227;-72
2024/04/13 01:53:57;;;;;;;5.22;3.10;;;14.60;99.90;;;;;;5453912;26;20721;-71
2024/04/13 01:56:22;;;;;;;5.30;3.30;;;14.60;99.90;;;;;;5458693;26;20224;-70
2024/04/13 01:58:48;;;;;;;4.72;3.40;;;14.50;99.90;;;;;;5452658;26;20240;-71
2024/04/13 02:01:14;;;;;;;4.70;3.17;;;14.50;99.90;;;;;;5451897;26;20224;-71
2024/04/13 02:03:40;;;;;;;4.03;3.20;;;14.50;99.90;;;;;;5450765;26;20240;-71
2024/04/13 02:06:08;;;;;;;4.88;2.67;;;14.40;99.90;;;;;;5452596;26;20583;-71
2024/04/13 02:08:35;;;;;;;8.13;3.75;;;14.40;99.90;;;;;;5452696;26;20610;-72
2024/04/13 02:11:01;;;;;;;10.85;2.95;;;14.30;99.90;;;;;;5449288;26;20343;-71
2024/04/13 02:13:28;;;;;;;3.72;3.28;;;14.30;99.90;;;;;;5449649;26;20236;-71
2024/04/13 02:15:54;;;;;;;4.80;2.85;;;14.20;99.90;;;;;;5452637;26;20706;-71
2024/04/13 02:18:20;;;;;;;7.20;3.35;;;14.10;99.90;;;;;;5454516;26;20317;-71
2024/04/13 02:20:47;;;;;;;5.47;2.60;;;14.00;99.90;;;;;;5450802;26;20236;-71
2024/04/13 02:23:12;;;;;;;5.55;2.80;;;14.00;99.90;;;;;;5447458;26;20341;-71
2024/04/13 02:25:42;;;;;;;9.32;2.35;;;13.90;99.90;;;;;;5448904;26;20749;-70
2024/04/13 02:28:09;;;;;;;5.30;2.90;;;13.90;99.90;;;;;;5451487;26;20678;-71
2024/04/13 02:30:35;;;;;;;4.95;3.10;;;13.90;99.90;;;;;;5451177;26;20228;-71
2024/04/13 02:33:01;;;;;;;4.70;3.13;;;13.90;99.90;;;;;;5442965;26;20337;-72
2024/04/13 02:35:26;;;;;;;7.15;3.42;;;13.90;99.90;;;;;;5442571;26;20244;-72
2024/04/13 02:37:52;;;;;;;4.05;2.92;;;13.90;99.90;;;;;;5443522;26;20224;-72
2024/04/13 02:40:23;;;;;;;4.57;3.20;;;13.80;99.90;;;;;;5435435;26;20249;-72
2024/04/13 02:42:52;;;;;;;6.38;3.05;;;13.80;99.90;;;;;;5451829;26;20285;-73
2024/04/13 02:45:18;;;;;;;7.40;3.70;;;13.70;99.90;;;;;;5450847;26;20278;-72
2024/04/13 02:47:50;;;;;;;4.30;2.72;;;13.70;99.90;;;;;;5451508;26;20278;-72
2024/04/13 02:50:17;;;;;;;4.78;2.60;;;13.70;99.90;;;;;;5451198;26;20575;-71
2024/04/13 02:52:43;;;;;;;6.20;3.13;;;13.60;99.90;;;;;;5449304;26;20681;-71
2024/04/13 02:55:09;;;;;;;3.53;3.20;;;13.60;99.90;;;;;;5450742;26;20232;-71
2024/04/13 02:57:35;;;;;;;6.57;2.90;;;13.60;99.90;;;;;;5451741;26;20369;-71
2024/04/13 03:00:01;;;;;;;6.18;2.95;;;13.50;99.90;;;;;;5449198;26;20244;-72
2024/04/13 03:02:27;;;;;;;7.80;3.65;;;13.60;99.90;;;;;;5448066;26;20589;-73
2024/04/13 03:04:53;;;;;;;5.60;2.90;;;13.60;99.90;;;;;;5451688;26;20236;-71
2024/04/13 03:07:19;;;;;;;3.55;2.85;;;13.50;99.90;;;;;;5450866;26;20236;-71
2024/04/13 03:09:46;;;;;;;4.68;3.17;;;13.50;99.90;;;;;;5459085;26;20236;-70
2024/04/13 03:12:13;;;;;;;4.85;3.13;;;13.50;99.90;;;;;;5458891;26;20448;-70
2024/04/13 03:14:39;;;;;;;7.78;2.83;;;13.50;99.90;;;;;;5454549;26;20311;-70
2024/04/13 03:17:05;;;;;;;5.10;3.17;;;13.50;99.90;;;;;;5436246;26;20243;-71
2024/04/13 03:19:32;;;;;;;3.13;2.58;;;13.40;99.90;;;;;;5450680;26;20685;-71
2024/04/13 03:21:59;;;;;;;5.20;3.40;;;13.30;99.90;;;;;;5424245;26;20306;-71
2024/04/13 03:24:24;;;;;;;4.20;2.88;;;13.30;99.90;;;;;;5418308;26;20709;-71
2024/04/13 03:26:50;;;;;;;7.95;3.03;;;13.30;99.90;;;;;;5454753;26;20239;-71
2024/04/13 03:29:16;;;;;;;16.63;2.90;;;13.30;99.90;;;;;;5459313;26;20235;-71
2024/04/13 03:31:42;;;;;;;6.32;2.65;;;13.20;99.90;;;;;;5453035;26;20232;-70
2024/04/13 03:34:08;;;;;;;5.80;3.10;;;13.30;99.90;;;;;;5448960;26;20343;-70
2024/04/13 03:36:37;;;;;;;4.22;2.60;;;13.20;99.90;;;;;;5450758;26;20235;-71
2024/04/13 03:39:02;;;;;;;5.35;2.90;;;13.20;99.90;;;;;;5427591;26;20236;-70
2024/04/13 03:41:29;;;;;;;4.18;2.97;;;13.20;99.90;;;;;;5449058;26;20642;-71
2024/04/13 03:43:54;;;;;;;5.78;2.70;;;13.00;99.90;;;;;;5449845;26;20232;-71
2024/04/13 03:46:20;;;;;;;5.75;3.08;;;12.90;99.90;;;;;;5446656;26;20622;-71
2024/04/13 03:48:46;;;;;;;4.53;3.10;;;12.90;99.90;;;;;;5448829;26;20294;-71
2024/04/13 03:51:13;;;;;;;3.90;2.90;;;12.90;99.90;;;;;;5449618;26;20342;-71
2024/04/13 03:53:38;;;;;;;7.95;3.35;;;12.90;99.90;;;;;;5447984;26;20235;-71
2024/04/13 03:56:04;;;;;;;3.60;3.20;;;13.10;99.90;;;;;;5450596;26;20274;-71
2024/04/13 03:58:30;;;;;;;11.25;4.03;;;13.10;99.90;;;;;;5442434;26;20266;-71
2024/04/13 04:00:57;;;;;;;5.00;2.60;;;13.10;99.90;;;;;;5450707;26;20228;-71
2024/04/13 04:03:23;;;;;;;5.38;3.05;;;13.10;99.90;;;;;;5452726;26;20282;-71
2024/04/13 04:05:49;;;;;;;4.53;3.35;;;13.10;99.90;;;;;;5449574;26;20227;-71
2024/04/13 04:08:14;;;;;;;4.95;3.10;;;13.00;99.90;;;;;;5444334;26;20333;-71
2024/04/13 04:10:43;;;;;;;3.38;3.08;;;13.00;99.90;;;;;;5449087;26;20247;-71
2024/04/13 04:13:08;;;;;;;5.85;2.95;;;13.00;99.90;;;;;;5418541;26;20327;-71
2024/04/13 04:15:34;;;;;;;4.15;3.20;;;12.90;99.90;;;;;;5427177;26;20252;-71
2024/04/13 04:18:03;;;;;;;6.65;3.97;;;13.00;99.90;;;;;;5431928;26;20330;-71
2024/04/13 04:20:31;;;;;;;5.07;3.20;;;13.00;99.90;;;;;;5432934;26;20296;-71
2024/04/13 04:22:57;;;;;;;5.10;2.88;;;13.00;99.90;;;;;;5448327;26;20239;-71
2024/04/13 04:25:24;;;;;;;6.60;3.45;;;13.10;99.90;;;;;;5449585;26;20278;-71
2024/04/13 04:27:49;;;;;;;4.40;3.17;;;13.10;99.90;;;;;;5448655;26;20602;-70
2024/04/13 04:30:15;;;;;;;3.78;3.08;;;13.20;99.90;;;;;;5451700;26;20231;-71
2024/04/13 04:32:42;;;;;;;4.55;3.30;;;13.10;99.90;;;;;;5453547;26;20228;-71
2024/04/13 04:35:08;;;;;;;4.75;3.30;;;13.10;99.90;;;;;;5427504;26;20239;-71
2024/04/13 04:37:34;;;;;;;4.40;2.97;;;13.10;99.90;;;;;;5452973;26;20228;-71
2024/04/13 04:40:00;;;;;;;3.30;3.00;;;13.10;99.90;;;;;;5453246;26;20287;-72
2024/04/13 04:42:28;;;;;;;6.25;3.45;;;13.00;99.90;;;;;;5453532;26;20232;-71
2024/04/13 04:44:54;;;;;;;4.85;3.42;;;13.10;99.90;;;;;;5451647;26;20244;-71
2024/04/13 04:47:20;;;;;;;4.60;3.05;;;13.10;99.90;;;;;;5454559;26;20279;-71
2024/04/13 04:49:46;;;;;;;7.13;3.30;;;13.10;99.90;;;;;;5452074;26;20279;-72
2024/04/13 04:52:12;;;;;;;6.68;3.10;;;13.10;99.90;;;;;;5453261;26;20244;-71
2024/04/13 04:54:38;;;;;;;4.85;2.95;;;13.00;99.90;;;;;;5450506;26;20243;-72
2024/04/13 04:57:04;;;;;;;5.25;3.80;;;12.90;99.90;;;;;;5447967;26;20296;-71
2024/04/13 04:59:30;;;;;;;5.43;3.53;;;12.90;99.90;;;;;;5451932;26;20309;-71
2024/04/13 05:01:56;;;;;;;5.32;3.05;;;12.80;99.90;;;;;;5454260;26;20598;-70
2024/04/13 05:04:23;;;;;;;4.20;3.03;;;12.80;99.90;;;;;;5457830;26;20235;-71
2024/04/13 05:06:49;;;;;;;3.72;3.30;;;12.70;99.90;;;;;;5451468;26;20227;-71
2024/04/13 05:09:14;;;;;;;6.43;3.20;;;12.70;99.90;;;;;;5453292;26;20482;-71
2024/04/13 05:11:40;;;;;;;6.32;2.85;;;12.70;99.90;;;;;;5446635;26;20232;-71
2024/04/13 05:14:07;;;;;;;6.30;3.63;;;12.60;99.90;;;;;;5435657;21;20746;-73
2024/04/13 05:16:34;;;;;;;3.92;2.97;;;12.60;99.90;;;;;;5420400;26;20263;-74
2024/04/13 05:19:01;;;;;;;4.53;3.20;;;12.60;99.90;;;;;;5428278;26;20638;-75
2024/04/13 05:21:27;;;;;;;5.78;3.30;;;12.60;99.90;;;;;;5423658;26;20275;-74
2024/04/13 05:23:53;;;;;;;8.43;2.88;;;12.70;99.90;;;;;;5429137;26;20224;-74
2024/04/13 05:26:18;;;;;;;3.88;3.03;;;12.60;99.90;;;;;;5417490;26;20225;-74
2024/04/13 05:28:44;;;;;;;4.85;3.28;;;12.70;99.90;;;;;;5421493;26;20248;-73
2024/04/13 05:31:09;;;;;;;6.40;3.22;;;12.70;99.90;;;;;;5422033;26;20609;-73
2024/04/13 05:33:36;;;;;;;7.28;3.13;;;12.80;99.90;;;;;;5408342;26;20282;-74
2024/04/13 05:36:02;;;;;;;6.20;3.42;;;13.00;99.90;;;;;;5415294;26;20811;-74
2024/04/13 05:38:29;;;;;;;5.72;3.38;;;13.10;99.90;;;;;;5428011;26;20228;-73
2024/04/13 05:40:55;;;;;;;8.35;3.33;;;13.20;99.90;;;;;;5443662;26;20224;-74
2024/04/13 05:43:21;;;;;;;3.95;3.00;;;13.20;99.90;;;;;;5418171;26;20337;-75
2024/04/13 05:45:47;;;;;;;5.63;3.35;;;13.40;99.90;;;;;;5441764;26;20248;-75
2024/04/13 05:48:13;;;;;;;9.18;3.50;;;13.50;99.90;;;;;;5435538;26;20248;-75
2024/04/13 05:50:38;;;;;;;7.05;4.18;;;13.70;99.90;;;;;;5431338;26;20243;-75
2024/04/13 05:53:04;;;;;;;4.95;3.60;;;13.90;99.90;;;;;;5445184;26;20738;-74
2024/04/13 05:55:31;;;;;;;4.53;2.92;;;14.10;99.90;;;;;;5437785;26;20684;-73
2024/04/13 05:57:56;;;;;;;4.03;3.53;;;14.60;99.90;;;;;;5451942;26;20231;-74
2024/04/13 06:00:22;;;;;;;6.78;3.70;;;15.20;99.90;;;;;;5451104;26;20797;-75
2024/04/13 06:02:48;;;;;;;4.22;3.08;;;15.40;99.90;;;;;;5442776;26;20345;-72
2024/04/13 06:05:15;;;;;;;4.68;3.10;;;15.50;99.90;;;;;;5422565;26;20627;-72
2024/04/13 06:07:40;;;;;;;7.28;2.85;;;15.90;99.90;;;;;;5441910;26;20345;-73
2024/04/13 06:10:07;;;;;;;6.57;3.47;;;16.40;99.90;;;;;;5415099;26;20232;-75
2024/04/13 06:12:33;;;;;;;8.40;3.60;;;16.90;99.90;;;;;;5419239;26;20579;-73
2024/04/13 06:15:00;;;;;;;20.38;5.05;;;16.90;99.90;;;;;;5449628;26;20317;-74
2024/04/13 06:17:26;;;;;;;3.47;2.75;;;16.90;99.90;;;;;;5419956;26;20751;-76
2024/04/13 06:19:51;;;;;;;4.82;3.00;;;17.10;99.90;;;;;;5428171;26;20235;-73
2024/04/13 06:22:23;;;;;;;10.57;3.95;;;17.30;99.90;;;;;;5451666;26;20786;-77
2024/04/13 06:24:50;;;;;;;5.63;3.22;;;17.60;99.90;;;;;;5452628;26;20229;-74
2024/04/13 06:27:16;;;;;;;6.30;3.10;;;17.90;99.90;;;;;;5432961;26;20240;-71
2024/04/13 06:29:48;;;;;;;3.53;3.22;;;17.90;99.90;;;;;;5421413;26;20235;-72
2024/04/13 06:32:14;;;;;;;6.95;3.55;;;17.80;99.90;;;;;;5434613;26;20306;-68
2024/04/13 06:34:39;;;;;;;4.45;3.05;;;18.00;99.90;;;;;;5434041;26;20249;-75
2024/04/13 06:37:05;;;;;;;5.10;2.88;;;17.90;99.90;;;;;;5415093;26;20726;-70
2024/04/13 06:39:30;;;;;;;4.00;2.92;;;17.50;99.90;;;;;;5423297;26;20255;-71
2024/04/13 06:41:56;;;;;;;4.30;3.20;;;17.60;99.90;;;;;;5414973;26;20329;-70
2024/04/13 06:44:22;;;;;;;3.58;2.53;;;17.30;99.90;;;;;;5415036;26;20634;-73
2024/04/13 06:46:47;;;;;;;3.47;3.15;;;17.60;99.90;;;;;;5435159;26;20266;-71
2024/04/13 06:49:14;;;;;;;6.93;3.22;;;17.80;99.90;;;;;;5451222;26;20278;-72
2024/04/13 06:51:40;;;;;;;4.97;3.17;;;18.00;99.90;;;;;;5435871;26;20240;-71
2024/04/13 06:54:05;;;;;;;5.70;3.15;;;18.30;99.90;;;;;;5447391;26;20313;-71
2024/04/13 06:56:31;;;;;;;5.22;3.03;;;18.50;99.90;;;;;;5417339;26;20707;-70
2024/04/13 06:58:56;;;;;;;10.15;3.38;;;18.90;99.90;;;;;;5430338;26;20263;-71
2024/04/13 07:01:23;;;;;;;10.68;3.50;;;19.20;99.90;;;;;;5416436;26;20241;-70
2024/04/13 07:03:48;;;;;;;4.53;3.17;;;19.40;99.90;;;;;;5428235;26;20619;-71
2024/04/13 07:06:14;;;;;;;4.32;2.60;;;19.40;99.90;;;;;;5449629;26;20306;-72
2024/04/13 07:08:43;;;;;;;3.22;2.88;;;19.60;99.90;;;;;;5440688;26;20227;-73
2024/04/13 07:11:08;;;;;;;5.28;3.03;;;19.60;99.90;;;;;;5450935;26;20228;-72
2024/04/13 07:13:34;;;;;;;7.10;3.08;;;19.70;99.90;;;;;;5448220;26;20300;-73
2024/04/13 07:16:00;;;;;;;7.35;2.95;;;19.50;99.90;;;;;;5439102;26;20726;-70
2024/04/13 07:18:25;;;;;;;8.98;3.33;;;19.60;99.90;;;;;;5420568;26;20288;-72
2024/04/13 07:20:51;;;;;;;5.68;2.92;;;19.90;99.90;;;;;;5423344;26;20260;-72
2024/04/13 07:23:17;;;;;;;6.85;3.00;;;20.00;99.90;;;;;;5448232;26;20232;-70
2024/04/13 07:25:43;;;;;;;3.92;2.90;;;20.30;99.90;;;;;;5428417;26;20244;-71
2024/04/13 07:28:10;;;;;;;8.43;3.55;;;20.50;99.90;;;;;;5413929;26;20283;-72
2024/04/13 07:30:35;;;;;;;4.85;3.00;;;20.60;99.90;;;;;;5424922;26;20338;-71
2024/04/13 07:33:02;;;;;;;6.95;3.50;;;20.60;99.90;;;;;;5449336;26;20244;-72
2024/04/13 07:35:27;;;;;;;7.75;2.78;;;20.50;99.90;;;;;;5435721;26;20299;-72
2024/04/13 07:37:54;;;;;;;6.18;3.35;;;20.70;99.90;;;;;;5426325;26;20236;-71
2024/04/13 07:40:19;;;;;;;4.57;3.13;;;20.70;99.90;;;;;;5439920;26;20459;-71
2024/04/13 07:42:45;;;;;;;6.13;2.92;;;20.70;99.90;;;;;;5449999;26;20232;-74
2024/04/13 07:45:10;;;;;;;8.88;2.90;;;20.70;99.90;;;;;;5448046;26;20311;-71
2024/04/13 07:47:36;;;;;;;8.77;2.92;;;20.70;99.90;;;;;;5427811;26;20304;-72
2024/04/13 07:50:02;;;;;;;6.40;2.80;;;20.80;99.90;;;;;;5437879;26;20299;-72
2024/04/13 07:52:28;;;;;;;3.78;3.00;;;20.90;99.90;;;;;;5451365;26;20625;-71
2024/04/13 07:54:53;;;;;;;5.05;3.03;;;20.90;99.90;;;;;;5443307;26;20229;-71
2024/04/13 07:57:19;;;;;;;10.88;4.03;;;20.70;99.90;;;;;;5418638;26;20225;-71
2024/04/13 07:59:45;;;;;;;9.13;3.45;;;20.80;99.90;;;;;;5431913;26;20361;-70
2024/04/13 08:02:11;;;;;;;4.45;2.83;;;20.80;99.90;;;;;;5448419;26;20234;-72
2024/04/13 08:04:36;;;;;;;4.72;3.00;;;20.70;99.90;;;;;;5433434;26;20237;-71
2024/04/13 08:07:02;;;;;;;4.82;3.17;;;20.90;99.90;;;;;;5427711;26;20304;-71
2024/04/13 08:09:27;;;;;;;6.13;2.78;;;21.10;99.90;;;;;;5426141;26;20266;-74
2024/04/13 08:11:54;;;;;;;3.60;3.20;;;21.40;99.90;;;;;;5454429;26;20219;-72
2024/04/13 08:14:20;;;;;;;7.10;3.63;;;21.60;99.90;;;;;;5445275;26;20269;-73
2024/04/13 08:16:45;;;;;;;4.53;2.70;;;21.70;99.90;;;;;;5427784;26;20227;-70
2024/04/13 08:19:11;;;;;;;4.57;3.15;;;21.70;99.90;;;;;;5453337;26;20850;-72
2024/04/13 08:21:37;;;;;;;6.47;2.92;;;21.80;99.90;;;;;;5452093;26;20240;-71
2024/04/13 08:24:02;;;;;;;4.65;2.80;;;21.60;99.90;;;;;;5439290;26;20267;-74
2024/04/13 08:26:28;;;;;;;3.33;2.40;;;21.50;99.90;;;;;;5431990;26;20333;-72
2024/04/13 08:28:54;;;;;;;3.45;2.38;;;21.50;99.90;;;;;;5427138;26;20236;-73
2024/04/13 08:31:19;;;;;;;3.10;2.55;;;21.60;99.90;;;;;;5441352;26;20229;-72
2024/04/13 08:33:45;;;;;;;4.38;3.15;;;21.80;99.90;;;;;;5426805;26;20259;-72
2024/04/13 08:36:11;;;;;;;4.85;3.13;;;22.10;99.90;;;;;;5447970;26;20232;-71
2024/04/13 08:38:36;;;;;;;8.02;3.60;;;22.40;99.90;;;;;;5451131;26;20228;-71
2024/04/13 08:41:35;;;;;;;4.05;2.20;;;22.70;99.90;;;;;;5452539;26;20276;-72
2024/04/13 08:44:01;;;;;;;6.18;2.35;;;22.80;99.90;;;;;;5451751;26;20240;-71
2024/04/13 08:46:30;;;;;;;5.53;2.38;;;22.60;99.90;;;;;;5443860;26;20334;-71
2024/04/13 08:48:55;;;;;;;4.03;2.25;;;22.50;99.90;;;;;;5415882;26;20279;-73
2024/04/13 08:51:22;;;;;;;7.38;2.78;;;22.60;99.90;;;;;;5444888;26;20236;-71
2024/04/13 08:53:49;;;;;;;3.67;2.17;;;22.70;99.90;;;;;;5436509;26;20757;-73
2024/04/13 08:56:17;;;;;;;5.18;2.70;;;22.70;99.90;;;;;;5451784;26;20235;-71
2024/04/13 08:58:46;;;;;;;7.13;3.00;;;22.60;99.90;;;;;;5437451;26;20286;-71
2024/04/13 09:01:15;;;;;;;6.13;2.80;;;22.80;99.90;;;;;;5451854;26;20233;-70
2024/04/13 09:03:42;;;;;;;4.07;2.30;;;23.00;99.90;;;;;;5434623;26;20229;-68
2024/04/13 09:06:09;;;;;;;6.55;2.70;;;23.20;99.90;;;;;;5427661;26;20742;-71
2024/04/13 09:08:37;;;;;;;4.65;2.25;;;23.10;99.90;;;;;;5445059;26;20236;-73
2024/04/13 09:11:05;;;;;;;5.25;2.72;;;23.00;99.90;;;;;;5452174;26;20275;-71
2024/04/13 09:13:31;;;;;;;3.92;2.25;;;23.00;99.90;;;;;;5452367;26;20259;-72
2024/04/13 09:15:58;;;;;;;3.78;2.00;;;23.20;99.90;;;;;;5450021;26;20662;-70
2024/04/13 09:18:23;;;;;;;6.10;2.92;;;23.40;99.90;;;;;;5449226;26;20244;-71
2024/04/13 09:20:49;;;;;;;2.72;2.05;;;23.40;99.90;;;;;;5453491;26;20401;-71
2024/04/13 09:23:17;;;;;;;4.60;2.03;;;23.40;99.90;;;;;;5449261;26;20243;-73
2024/04/13 09:25:43;;;;;;;3.63;2.00;;;23.30;99.90;;;;;;5451170;26;20228;-70
2024/04/13 09:28:10;;;;;;;6.20;2.10;;;23.30;99.90;;;;;;5433320;26;20278;-72
2024/04/13 09:30:35;;;;;;;2.90;1.95;;;23.40;99.90;;;;;;5450794;26;20488;-72
2024/04/13 09:33:10;;;;;;;2.15;1.45;;;23.50;99.90;;;;;;5436292;26;20705;-73
2024/04/13 09:35:36;;;;;;;4.28;1.98;;;23.60;99.90;;;;;;5451160;26;20247;-72
2024/04/13 09:38:01;;;;;;;2.95;1.70;;;23.70;99.90;;;;;;5451073;26;20737;-73
2024/04/13 09:40:30;;;;;;;2.97;1.88;;;23.80;99.90;;;;;;5424032;26;20236;-71
2024/04/13 09:42:56;;;;;;;3.58;1.92;;;23.90;99.90;;;;;;5415198;26;20232;-73
2024/04/13 09:45:21;;;;;;;2.45;1.88;;;24.00;99.90;;;;;;5416617;26;20244;-72
2024/04/13 09:47:47;;;;;;;2.15;1.73;;;24.00;99.90;;;;;;5420411;26;20742;-71
2024/04/13 09:50:14;;;;;;;4.78;2.33;;;24.00;99.90;;;;;;5418130;26;20233;-71
2024/04/13 09:52:40;;;;;;;2.35;2.13;;;24.10;99.90;;;;;;5433963;26;20227;-71
2024/04/13 09:55:06;;;;;;;3.70;2.10;;;24.10;99.90;;;;;;5416646;26;20233;-72
2024/04/13 09:57:32;;;;;;;3.45;1.95;;;24.10;99.90;;;;;;5416268;26;20627;-71
2024/04/13 10:00:00;;;;;;;5.97;2.42;;;24.20;99.90;;;;;;5437024;26;20232;-71
2024/04/13 10:02:25;;;;;;;7.00;1.90;;;24.20;99.90;;;;;;5449895;26;20768;-72
2024/04/13 10:04:51;;;;;;;3.92;2.38;;;24.30;99.90;;;;;;5425741;26;20257;-74
2024/04/13 10:07:18;;;;;;;3.53;2.20;;;24.50;99.90;;;;;;5468124;26;20227;-71
2024/04/13 10:09:54;;;;;;;4.50;2.50;;;24.40;99.90;;;;;;5438356;26;20237;-72
2024/04/13 10:12:28;;;;;;;4.97;1.90;;;24.40;99.90;;;;;;5453880;26;20286;-72
2024/04/13 10:14:57;;;;;;;4.82;2.10;;;24.50;99.90;;;;;;5452039;26;20235;-73
2024/04/13 10:17:23;;;;;;;7.78;2.42;;;24.60;99.90;;;;;;5452602;26;20270;-71
2024/04/13 10:19:48;;;;;;;8.48;3.00;;;24.60;99.90;;;;;;5451829;26;20335;-72
2024/04/13 10:22:14;;;;;;;4.22;2.60;;;24.50;99.90;;;;;;5448568;26;20684;-71
2024/04/13 10:24:45;;;;;;;4.15;2.03;;;24.30;99.90;;;;;;5449395;26;20236;-72
2024/04/13 10:27:12;;;;;;;3.78;2.15;;;24.40;99.90;;;;;;5426875;26;20244;-72
2024/04/13 10:29:44;;;;;;;4.95;2.35;;;24.50;99.90;;;;;;5444055;26;20239;-72
2024/04/13 10:32:17;;;;;;;3.20;2.20;;;24.60;99.90;;;;;;5415888;26;20303;-73
2024/04/13 10:34:43;;;;;;;4.53;2.17;;;24.60;99.90;;;;;;5415040;26;20292;-73
2024/04/13 10:37:35;;;;;;;5.63;2.53;;;24.50;99.90;;;;;;5415159;26;20233;-72
2024/04/13 10:40:06;;;;;;;3.80;1.83;;;24.60;99.90;;;;;;5414606;26;20308;-75
2024/04/13 10:42:42;;;;;;;7.53;2.28;;;24.40;99.90;;;;;;5429675;26;20277;-72
2024/04/13 10:45:12;;;;;;;3.70;2.42;;;24.00;99.90;;;;;;5438682;26;20270;-72
2024/04/13 10:47:39;;;;;;;3.35;2.38;;;23.60;99.90;;;;;;5452194;26;20244;-73
2024/04/13 10:50:08;;;;;;;5.45;2.65;;;23.50;99.90;;;;;;5454512;26;20244;-73
2024/04/13 10:52:35;;;;;;;2.55;2.03;;;23.60;99.90;;;;;;5462297;26;20235;-73
2024/04/13 10:55:00;;;;;;;3.28;1.92;;;23.80;99.90;;;;;;5447748;26;20295;-71
2024/04/13 10:57:26;;;;;;;4.70;2.40;;;24.10;99.90;;;;;;5455574;26;20236;-73
2024/04/13 10:59:52;;;;;;;3.53;2.10;;;24.20;99.90;;;;;;5458546;26;20236;-73
2024/04/13 11:02:18;;;;;;;3.40;1.98;;;24.30;99.90;;;;;;5446917;26;20247;-74
2024/04/13 11:04:44;;;;;;;3.58;1.83;;;24.30;99.90;;;;;;5436627;26;20243;-73
2024/04/13 11:07:13;;;;;;;2.33;1.55;;;24.20;99.90;;;;;;5418707;26;20229;-72
2024/04/13 11:09:39;;;;;;;2.47;1.58;;;24.40;99.90;;;;;;5421792;26;20240;-72
2024/04/13 11:12:12;;;;;;;2.78;1.85;;;24.40;99.90;;;;;;5438357;26;20259;-72
2024/04/13 11:14:38;;;;;;;3.95;1.60;;;24.50;99.90;;;;;;5421395;26;20353;-71
2024/04/13 11:17:04;;;;;;;2.65;1.60;;;24.60;99.90;;;;;;5435088;26;20240;-71
2024/04/13 11:19:30;;;;;;;3.83;1.80;;;24.60;99.90;;;;;;5419953;26;20279;-73
2024/04/13 11:21:58;;;;;;;3.80;1.50;;;24.50;99.90;;;;;;5448155;26;20709;-72
2024/04/13 11:24:24;;;;;;;3.75;1.80;;;24.40;99.90;;;;;;5432856;26;20656;-71
2024/04/13 11:26:51;;;;;;;2.78;1.42;;;24.40;99.90;;;;;;5434252;26;20243;-72
2024/04/13 11:29:18;;;;;;;2.75;1.77;;;24.30;99.90;;;;;;5425136;26;20239;-72
2024/04/13 11:31:44;;;;;;;3.47;1.35;;;24.40;99.90;;;;;;5454590;26;20583;-72
2024/04/13 11:34:10;;;;;;;4.40;2.03;;;24.40;99.90;;;;;;5446354;26;20244;-72
2024/04/13 11:36:36;;;;;;;4.35;1.42;;;24.40;99.90;;;;;;5446145;26;20788;-72
2024/04/13 11:39:04;;;;;;;4.88;1.50;;;24.40;99.90;;;;;;5436879;26;20269;-76
2024/04/13 11:41:30;;;;;;;1.73;1.00;;;24.40;99.90;;;;;;5432656;26;20248;-73
2024/04/13 11:43:56;;;;;;;2.40;1.05;;;24.40;99.90;;;;;;5441506;26;20263;-71
2024/04/13 11:46:23;;;;;;;7.47;1.30;;;24.50;99.90;;;;;;5441506;26;20312;-71
2024/04/13 11:48:50;;;;;;;7.25;1.52;;;24.50;99.90;;;;;;5428684;26;20236;-71
2024/04/13 11:51:15;;;;;;;3.45;1.23;;;24.50;99.90;;;;;;5439547;26;20235;-70
2024/04/13 11:53:41;;;;;;;4.78;1.45;;;24.40;99.90;;;;;;5428787;26;20224;-70
2024/04/13 11:56:11;;;;;;;3.40;1.50;;;24.20;99.90;;;;;;5420812;26;20260;-71
2024/04/13 11:58:47;;;;;;;2.03;1.40;;;24.10;99.90;;;;;;5438018;26;20233;-73
2024/04/13 12:01:14;;;;;;;2.42;1.38;;;24.00;99.90;;;;;;5454139;26;20243;-70
2024/04/13 12:03:39;;;;;;;3.97;1.60;;;24.00;99.90;;;;;;5451460;26;20243;-70
2024/04/13 12:06:06;;;;;;;3.65;1.30;;;24.00;99.90;;;;;;5433595;26;20239;-72
2024/04/13 12:08:32;;;;;;;3.22;1.58;;;24.00;99.90;;;;;;5428332;26;20649;-70
2024/04/13 12:10:58;;;;;;;2.55;0.90;;;24.00;99.90;;;;;;5450309;26;20258;-71
2024/04/13 12:13:24;;;;;;;5.05;1.48;;;23.90;99.90;;;;;;5457068;26;20231;-70
2024/04/13 12:15:49;;;;;;;2.28;1.42;;;23.80;99.90;;;;;;5449903;26;20275;-71
2024/04/13 12:18:15;;;;;;;4.35;1.63;;;23.80;99.90;;;;;;5441738;26;20227;-72
2024/04/13 12:20:41;;;;;;;4.75;1.30;;;23.70;99.90;;;;;;5441836;26;20247;-71
2024/04/13 12:23:07;;;;;;;3.15;1.13;;;23.70;99.90;;;;;;5438697;26;20664;-71
2024/04/13 12:25:33;;;;;;;3.25;1.33;;;23.80;99.90;;;;;;5443254;26;20241;-71
2024/04/13 12:27:59;;;;;;;3.25;1.65;;;23.80;99.90;;;;;;5437562;26;20227;-70
2024/04/13 12:30:25;;;;;;;2.17;1.60;;;23.90;99.90;;;;;;5450379;26;20624;-72
2024/04/13 12:32:51;;;;;;;3.03;1.40;;;24.00;99.90;;;;;;5439982;26;20278;-71
2024/04/13 12:35:20;;;;;;;3.65;1.40;;;24.00;99.90;;;;;;5447031;26;20236;-69
2024/04/13 12:37:46;;;;;;;2.38;1.48;;;24.00;99.90;;;;;;5442919;26;20304;-75
2024/04/13 12:40:14;;;;;;;2.45;1.20;;;24.10;99.90;;;;;;5446422;26;20789;-72
2024/04/13 12:42:39;;;;;;;2.88;1.83;;;24.20;99.90;;;;;;5430627;26;20228;-69